createdAt,value
2018-06-05T00:02:18.412Z,18.68
2018-06-05T00:04:49.107Z,19.13
2018-06-05T00:07:19.974Z,19.00
2018-06-05T00:09:50.281Z,19.26
2018-06-05T00:12:20.034Z,19.32
2018-06-05T00:14:49.504Z,19.45
2018-06-05T00:17:20.496Z,19.54
2018-06-05T00:19:50.177Z,19.56
2018-06-05T00:22:19.929Z,19.43
2018-06-05T00:24:49.713Z,18.92
2018-06-05T00:27:19.525Z,19.24
2018-06-05T00:29:49.615Z,19.27
2018-06-05T00:32:20.286Z,19.03
2018-06-05T00:34:50.401Z,18.77
2018-06-05T00:37:21.585Z,19.06
2018-06-05T00:39:51.738Z,19.18
2018-06-05T00:42:22.130Z,19.34
2018-06-05T00:44:52.607Z,19.38
2018-06-05T00:47:24.010Z,19.44
2018-06-05T00:49:54.517Z,18.94
2018-06-05T00:52:24.897Z,19.14
2018-06-05T00:54:55.473Z,18.26
2018-06-05T00:57:26.161Z,18.59
2018-06-05T00:59:56.731Z,18.74
2018-06-05T01:02:26.809Z,19.01
2018-06-05T01:04:57.243Z,19.13
2018-06-05T01:07:28.131Z,18.77
2018-06-05T01:09:57.812Z,19.00
2018-06-05T01:12:27.590Z,18.90
2018-06-05T01:14:57.315Z,19.12
2018-06-05T01:17:27.018Z,19.11
2018-06-05T01:19:56.893Z,18.70
2018-06-05T01:22:26.988Z,18.33
2018-06-05T01:24:57.138Z,18.73
2018-06-05T01:27:27.667Z,18.45
2018-06-05T01:29:57.735Z,18.29
2018-06-05T01:32:28.270Z,18.42
2018-06-05T01:34:58.667Z,18.61
2018-06-05T01:37:29.658Z,18.85
2018-06-05T01:40:00.302Z,18.55
2018-06-05T01:42:30.149Z,18.04
2018-06-05T01:45:00.584Z,17.86
2018-06-05T01:47:31.849Z,18.27
2018-06-05T01:50:02.806Z,18.63
2018-06-05T01:52:33.421Z,18.62
2018-06-05T01:55:03.965Z,17.58
2018-06-05T01:57:34.846Z,17.25
2018-06-05T02:00:05.050Z,16.96
2018-06-05T02:02:35.826Z,16.38
2018-06-05T02:05:06.665Z,16.62
2018-06-05T02:07:36.882Z,16.57
2018-06-05T02:10:07.452Z,16.25
2018-06-05T02:12:37.219Z,16.47
2018-06-05T02:15:07.440Z,16.64
2018-06-05T02:17:38.314Z,16.89
2018-06-05T02:20:08.865Z,17.03
2018-06-05T02:22:39.293Z,17.44
2018-06-05T02:25:09.655Z,17.41
2018-06-05T02:27:40.545Z,17.77
2018-06-05T02:30:10.897Z,17.69
2018-06-05T02:32:41.225Z,18.01
2018-06-05T02:35:11.833Z,18.16
2018-06-05T02:37:42.280Z,18.05
2018-06-05T02:40:12.986Z,18.10
2018-06-05T02:42:43.320Z,17.74
2018-06-05T02:45:13.456Z,17.98
2018-06-05T02:47:44.580Z,17.99
2018-06-05T02:50:15.085Z,18.21
2018-06-05T02:52:45.720Z,18.32
2018-06-05T02:55:16.442Z,17.91
2018-06-05T02:57:47.061Z,18.27
2018-06-05T03:00:16.601Z,18.24
2018-06-05T03:02:47.068Z,18.27
2018-06-05T03:05:17.370Z,18.33
2018-06-05T03:07:48.386Z,18.36
2018-06-05T03:10:18.980Z,18.27
2018-06-05T03:12:49.429Z,17.81
2018-06-05T03:15:20.067Z,17.64
2018-06-05T03:17:51.208Z,17.34
2018-06-05T03:20:21.980Z,17.28
2018-06-05T03:22:52.361Z,17.26
2018-06-05T03:25:22.826Z,17.50
2018-06-05T03:27:53.906Z,17.96
2018-06-05T03:30:24.328Z,18.07
2018-06-05T03:32:54.624Z,18.06
2018-06-05T03:35:25.311Z,17.46
2018-06-05T03:37:55.838Z,17.96
2018-06-05T03:40:26.267Z,18.22
2018-06-05T03:42:56.612Z,18.02
2018-06-05T03:45:27.218Z,18.27
2018-06-05T03:47:58.238Z,18.57
2018-06-05T03:50:28.948Z,17.75
2018-06-05T03:52:59.277Z,17.19
2018-06-05T03:55:29.873Z,16.73
2018-06-05T03:58:00.454Z,16.67
2018-06-05T04:00:30.868Z,16.69
2018-06-05T04:03:01.509Z,17.30
2018-06-05T04:05:32.478Z,17.28
2018-06-05T04:08:04.145Z,16.48
2018-06-05T04:10:34.548Z,17.01
2018-06-05T04:13:05.224Z,17.58
2018-06-05T04:15:35.597Z,17.61
2018-06-05T04:18:07.281Z,17.76
2018-06-05T04:20:37.566Z,17.74
2018-06-05T04:23:08.127Z,17.61
2018-06-05T04:25:38.657Z,17.77
2018-06-05T04:28:09.366Z,17.24
2018-06-05T04:30:39.794Z,17.80
2018-06-05T04:33:09.792Z,17.94
2018-06-05T04:35:40.096Z,18.47
2018-06-05T04:38:10.556Z,18.32
2018-06-05T04:40:41.230Z,18.57
2018-06-05T04:43:11.816Z,18.77
2018-06-05T04:45:42.142Z,19.00
2018-06-05T04:48:12.783Z,18.81
2018-06-05T04:50:43.513Z,18.69
2018-06-05T04:53:14.217Z,18.51
2018-06-05T04:55:44.774Z,18.87
2018-06-05T04:58:15.341Z,19.25
2018-06-05T05:00:45.405Z,19.50
2018-06-05T05:03:15.827Z,19.11
2018-06-05T05:05:46.206Z,19.57
2018-06-05T05:08:17.717Z,19.83
2018-06-05T05:10:48.170Z,20.17
2018-06-05T05:13:18.796Z,20.00
2018-06-05T05:15:49.343Z,20.22
2018-06-05T05:18:20.631Z,20.39
2018-06-05T05:20:51.062Z,20.50
2018-06-05T05:23:21.590Z,20.95
2018-06-05T05:25:52.030Z,20.46
2018-06-05T05:28:22.749Z,20.52
2018-06-05T05:30:53.191Z,20.41
2018-06-05T05:33:23.670Z,20.82
2018-06-05T05:35:54.361Z,20.83
2018-06-05T05:38:25.338Z,21.15
2018-06-05T05:40:55.645Z,20.14
2018-06-05T05:43:25.964Z,20.86
2018-06-05T05:45:56.565Z,21.14
2018-06-05T05:48:27.286Z,22.09
2018-06-05T05:50:57.049Z,22.36
2018-06-05T05:53:26.813Z,22.87
2018-06-05T05:55:56.665Z,22.32
2018-06-05T05:58:26.894Z,22.96
2018-06-05T06:00:56.622Z,23.20
2018-06-05T06:03:26.341Z,23.35
2018-06-05T06:05:56.873Z,22.92
2018-06-05T06:08:27.634Z,23.04
2018-06-05T06:10:57.410Z,23.28
2018-06-05T06:13:27.189Z,23.31
2018-06-05T06:15:56.921Z,23.14
2018-06-05T06:18:26.726Z,23.05
2018-06-05T06:20:56.520Z,22.61
2018-06-05T06:23:26.810Z,23.06
2018-06-05T06:25:56.990Z,23.17
2018-06-05T06:28:27.415Z,23.58
2018-06-05T06:30:57.878Z,23.46
2018-06-05T06:33:28.233Z,23.51
2018-06-05T06:35:58.768Z,23.63
2018-06-05T06:38:29.397Z,23.05
2018-06-05T06:40:59.810Z,22.85
2018-06-05T06:43:30.420Z,23.58
2018-06-05T06:46:00.750Z,22.81
2018-06-05T06:48:31.991Z,23.01
2018-06-05T06:51:02.333Z,23.17
2018-06-05T06:53:32.950Z,23.31
2018-06-05T06:56:03.290Z,24.17
2018-06-05T06:58:34.038Z,23.10
2018-06-05T07:01:04.561Z,23.30
2018-06-05T07:03:35.219Z,24.20
2018-06-05T07:06:06.196Z,24.49
2018-06-05T07:08:36.370Z,23.58
2018-06-05T07:11:13.630Z,24.21
2018-06-05T07:13:44.435Z,24.51
2018-06-05T07:16:15.348Z,24.90
2018-06-05T07:18:45.973Z,24.88
2018-06-05T07:21:16.830Z,24.89
2018-06-05T07:23:47.349Z,25.23
2018-06-05T07:26:18.790Z,25.54
2018-06-05T07:28:49.023Z,25.73
2018-06-05T07:31:19.934Z,25.51
2018-06-05T07:33:50.485Z,24.64
2018-06-05T07:36:21.047Z,25.80
2018-06-05T07:38:51.686Z,25.99
2018-06-05T07:41:22.471Z,26.71
2018-06-05T07:43:52.818Z,25.54
2018-06-05T07:46:23.269Z,26.16
2018-06-05T07:48:54.042Z,25.08
2018-06-05T07:51:25.395Z,25.27
2018-06-05T07:53:55.906Z,24.96
2018-06-05T07:56:26.358Z,25.02
2018-06-05T07:58:56.703Z,25.36
2018-06-05T08:01:27.742Z,25.10
2018-06-05T08:03:58.376Z,25.04
2018-06-05T08:06:29.214Z,25.36
2018-06-05T08:08:59.804Z,25.06
2018-06-05T08:11:31.471Z,25.50
2018-06-05T08:14:02.221Z,26.53
2018-06-05T08:16:32.883Z,27.54
2018-06-05T08:19:03.415Z,28.48
2018-06-05T08:21:37.483Z,28.23
2018-06-05T08:24:07.227Z,28.93
2018-06-05T08:26:54.729Z,29.45
2018-06-05T08:29:24.632Z,30.35
2018-06-05T08:31:55.201Z,29.90
2018-06-05T08:34:24.947Z,30.89
2018-06-05T08:36:54.764Z,31.86
2018-06-05T08:39:24.780Z,31.17
2018-06-05T08:41:55.507Z,31.61
2018-06-05T08:44:25.327Z,32.39
2018-06-05T08:46:55.856Z,32.64
2018-06-05T08:49:26.418Z,32.64
2018-06-05T08:51:57.782Z,32.16
2018-06-05T08:54:28.580Z,31.25
2018-06-05T08:56:58.975Z,32.54
2018-06-05T08:59:29.682Z,33.11
2018-06-05T09:02:00.975Z,33.06
2018-06-05T09:04:31.737Z,31.46
2018-06-05T09:07:02.120Z,32.26
2018-06-05T09:09:32.450Z,32.89
2018-06-05T09:12:03.750Z,32.75
2018-06-05T09:14:34.638Z,32.28
2018-06-05T09:17:04.858Z,33.20
2018-06-05T09:19:35.336Z,32.57
2018-06-05T09:22:06.256Z,32.29
2018-06-05T09:24:36.823Z,32.47
2018-06-05T09:27:07.188Z,33.66
2018-06-05T09:29:37.538Z,34.06
2018-06-05T09:32:08.397Z,33.96
2018-06-05T09:34:38.896Z,34.32
2018-06-05T09:37:09.459Z,34.55
2018-06-05T09:39:39.863Z,33.81
2018-06-05T09:42:11.059Z,33.65
2018-06-05T09:44:41.386Z,32.77
2018-06-05T09:47:11.915Z,31.07
2018-06-05T09:49:42.652Z,30.30
2018-06-05T09:52:13.751Z,30.47
2018-06-05T09:54:44.264Z,31.03
2018-06-05T09:57:14.776Z,32.37
2018-06-05T09:59:45.264Z,32.93
2018-06-05T10:02:15.957Z,32.81
2018-06-05T10:04:46.652Z,33.15
2018-06-05T10:07:17.160Z,32.94
2018-06-05T10:09:47.630Z,33.50
2018-06-05T10:12:19.740Z,33.50
2018-06-05T10:14:50.140Z,33.96
2018-06-05T10:17:20.996Z,34.31
2018-06-05T10:19:51.793Z,33.65
2018-06-05T10:22:22.844Z,33.36
2018-06-05T10:24:53.726Z,33.47
2018-06-05T10:27:24.095Z,32.20
2018-06-05T10:29:54.274Z,32.20
2018-06-05T10:32:25.412Z,30.95
2018-06-05T10:34:55.560Z,30.98
2018-06-05T10:37:26.076Z,31.67
2018-06-05T10:39:56.527Z,32.98
2018-06-05T10:42:27.509Z,33.75
2018-06-05T10:44:58.072Z,33.39
2018-06-05T10:47:28.643Z,32.81
2018-06-05T10:49:59.215Z,32.07
2018-06-05T10:53:59.055Z,30.53
2018-06-05T10:56:29.499Z,30.11
2018-06-05T10:59:00.074Z,30.28
2018-06-05T11:01:30.520Z,29.69
2018-06-05T11:04:01.236Z,29.27
2018-06-05T11:06:31.931Z,29.52
2018-06-05T11:09:02.151Z,30.62
2018-06-05T11:11:32.871Z,31.27
2018-06-05T11:14:04.198Z,30.71
2018-06-05T11:16:34.728Z,29.66
2018-06-05T11:19:05.390Z,29.28
2018-06-05T11:21:36.439Z,28.57
2018-06-05T11:24:06.893Z,27.81
2018-06-05T11:26:37.183Z,27.63
2018-06-05T11:29:08.234Z,27.24
2018-06-05T11:31:38.007Z,26.95
2018-06-05T11:34:07.717Z,27.18
2018-06-05T11:36:37.491Z,27.24
2018-06-05T11:39:09.142Z,27.59
2018-06-05T11:41:40.618Z,27.77
2018-06-05T11:44:10.889Z,28.72
2018-06-05T11:46:40.712Z,30.10
2018-06-05T11:49:10.498Z,30.14
2018-06-05T11:51:41.132Z,30.88
2018-06-05T11:54:10.897Z,31.12
2018-06-05T11:56:40.859Z,31.32
2018-06-05T11:59:11.378Z,31.24
2018-06-05T12:01:41.956Z,31.59
2018-06-05T12:04:12.530Z,30.63
2018-06-05T12:06:42.601Z,31.05
2018-06-05T12:09:12.851Z,31.33
2018-06-05T12:11:43.719Z,31.59
2018-06-05T12:14:14.542Z,31.90
2018-06-05T12:16:45.183Z,31.80
2018-06-05T12:19:15.572Z,30.80
2018-06-05T12:21:46.388Z,31.22
2018-06-05T12:24:16.628Z,31.55
2018-06-05T12:26:47.172Z,31.12
2018-06-05T12:29:17.687Z,30.70
2018-06-05T12:31:47.767Z,30.72
2018-06-05T12:34:17.961Z,30.58
2018-06-05T12:36:48.442Z,29.97
2018-06-05T12:39:18.969Z,29.90
2018-06-05T12:41:49.627Z,29.38
2018-06-05T12:44:19.975Z,28.58
2018-06-05T12:46:49.672Z,28.46
2018-06-05T12:49:19.609Z,28.36
2018-06-05T12:51:49.714Z,28.00
2018-06-05T12:54:19.568Z,27.92
2018-06-05T12:56:49.272Z,27.67
2018-06-05T12:59:19.303Z,27.82
2018-06-05T13:01:49.301Z,28.26
2018-06-05T13:04:19.099Z,28.02
2018-06-05T13:06:48.849Z,28.14
2018-06-05T13:09:18.613Z,28.16
2018-06-05T13:11:48.527Z,27.91
2018-06-05T13:14:18.348Z,28.34
2018-06-05T13:16:48.105Z,27.89
2018-06-05T13:19:17.911Z,27.99
2018-06-05T13:21:47.675Z,28.02
2018-06-05T13:24:17.581Z,27.34
2018-06-05T13:26:47.457Z,27.12
2018-06-05T13:29:17.183Z,27.26
2018-06-05T13:31:47.032Z,27.21
2018-06-05T13:34:16.937Z,26.85
2018-06-05T13:36:46.756Z,27.16
2018-06-05T13:39:16.432Z,27.24
2018-06-05T13:41:46.430Z,27.50
2018-06-05T13:44:16.300Z,28.17
2018-06-05T13:46:46.187Z,27.73
2018-06-05T13:49:15.971Z,29.89
2018-06-05T13:51:45.795Z,29.98
2018-06-05T13:54:15.628Z,29.89
2018-06-05T13:56:45.498Z,30.31
2018-06-05T13:59:15.324Z,30.22
2018-06-05T14:01:44.921Z,30.95
2018-06-05T14:04:14.637Z,30.81
2018-06-05T14:06:44.455Z,31.64
2018-06-05T14:09:14.190Z,32.04
2018-06-05T14:11:43.965Z,31.99
2018-06-05T14:14:13.822Z,32.06
2018-06-05T14:16:44.052Z,32.06
2018-06-05T14:19:13.838Z,31.83
2018-06-05T14:21:43.606Z,31.04
2018-06-05T14:24:13.479Z,30.83
2018-06-05T14:26:43.201Z,31.25
2018-06-05T14:29:13.027Z,30.52
2018-06-05T14:31:42.895Z,29.94
2018-06-05T14:34:12.718Z,29.32
2018-06-05T14:36:42.421Z,29.63
2018-06-05T14:39:12.247Z,29.23
2018-06-05T14:41:42.069Z,29.23
2018-06-05T14:44:11.829Z,29.62
2018-06-05T14:46:41.699Z,30.29
2018-06-05T14:49:11.424Z,30.19
2018-06-05T14:51:41.316Z,30.15
2018-06-05T14:54:11.083Z,30.58
2018-06-05T14:56:40.746Z,30.71
2018-06-05T14:59:10.610Z,30.94
2018-06-05T15:01:40.352Z,30.55
2018-06-05T15:04:10.225Z,30.40
2018-06-05T15:06:39.942Z,30.31
2018-06-05T15:09:09.696Z,29.41
2018-06-05T15:11:39.566Z,28.93
2018-06-05T15:14:09.347Z,28.66
2018-06-05T15:16:39.423Z,28.57
2018-06-05T15:19:09.531Z,27.85
2018-06-05T15:21:39.299Z,27.01
2018-06-05T15:24:09.077Z,26.57
2018-06-05T15:26:38.831Z,26.17
2018-06-05T15:29:08.600Z,26.41
2018-06-05T15:31:38.431Z,26.05
2018-06-05T15:34:08.113Z,25.85
2018-06-05T15:36:37.888Z,25.82
2018-06-05T15:39:09.656Z,26.24
2018-06-05T15:41:39.935Z,26.60
2018-06-05T15:44:09.588Z,26.51
2018-06-05T15:46:39.335Z,26.57
2018-06-05T15:49:09.148Z,26.40
2018-06-05T15:51:38.895Z,26.07
2018-06-05T15:54:08.655Z,26.18
2018-06-05T15:56:38.374Z,26.00
2018-06-05T15:59:08.116Z,25.90
2018-06-05T16:01:38.112Z,25.89
2018-06-05T16:04:07.864Z,25.83
2018-06-05T16:06:37.737Z,26.00
2018-06-05T16:09:10.254Z,26.03
2018-06-05T16:11:40.039Z,25.90
2018-06-05T16:14:09.874Z,25.74
2018-06-05T16:16:39.651Z,25.46
2018-06-05T16:19:09.617Z,25.49
2018-06-05T16:21:39.634Z,25.55
2018-06-05T16:24:09.364Z,25.37
2018-06-05T16:26:39.052Z,25.55
2018-06-05T16:29:08.905Z,25.65
2018-06-05T16:31:38.629Z,25.27
2018-06-05T16:34:08.474Z,25.38
2018-06-05T16:36:38.229Z,25.38
2018-06-05T16:39:09.503Z,24.98
2018-06-05T16:41:40.095Z,25.34
2018-06-05T16:44:09.832Z,25.25
2018-06-05T16:46:39.735Z,25.37
2018-06-05T16:49:09.462Z,25.05
2018-06-05T16:51:39.256Z,25.03
2018-06-05T16:54:09.048Z,24.95
2018-06-05T16:56:38.968Z,25.43
2018-06-05T16:59:08.647Z,24.88
2018-06-05T17:01:38.416Z,25.16
2018-06-05T17:04:08.474Z,24.78
2018-06-05T17:06:38.253Z,24.93
2018-06-05T17:09:08.731Z,25.20
2018-06-05T17:11:38.543Z,25.47
2018-06-05T17:14:08.354Z,25.35
2018-06-05T17:16:38.200Z,25.02
2018-06-05T17:19:07.926Z,25.06
2018-06-05T17:21:37.673Z,25.14
2018-06-05T17:24:07.753Z,25.22
2018-06-05T17:26:37.517Z,24.99
2018-06-05T17:29:07.420Z,24.66
2018-06-05T17:31:37.206Z,24.59
2018-06-05T17:34:07.120Z,24.66
2018-06-05T17:36:36.725Z,24.66
2018-06-05T17:39:08.487Z,24.49
2018-06-05T17:41:39.220Z,24.92
2018-06-05T17:44:09.102Z,24.79
2018-06-05T17:46:38.959Z,24.85
2018-06-05T17:49:08.684Z,24.84
2018-06-05T17:51:39.142Z,24.82
2018-06-05T17:54:08.864Z,24.96
2018-06-05T17:56:38.754Z,24.94
2018-06-05T17:59:08.584Z,24.93
2018-06-05T18:01:38.867Z,24.94
2018-06-05T18:04:08.651Z,24.71
2018-06-05T18:06:38.429Z,24.81
2018-06-05T18:09:09.215Z,24.76
2018-06-05T18:11:39.579Z,24.67
2018-06-05T18:14:09.397Z,24.13
2018-06-05T18:16:41.703Z,23.45
2018-06-05T18:19:11.568Z,23.26
2018-06-05T18:21:41.755Z,23.21
2018-06-05T18:24:13.114Z,22.84
2018-06-05T18:26:43.170Z,22.92
2018-06-05T18:29:13.496Z,22.94
2018-06-05T18:31:43.948Z,22.81
2018-06-05T18:34:13.748Z,22.79
2018-06-05T18:36:44.465Z,22.94
2018-06-05T18:39:14.219Z,23.45
2018-06-05T18:41:44.463Z,23.26
2018-06-05T18:44:14.280Z,22.94
2018-06-05T18:46:44.276Z,22.85
2018-06-05T18:49:15.619Z,22.93
2018-06-05T18:51:45.520Z,23.11
2018-06-05T18:54:16.391Z,23.03
2018-06-05T18:58:11.060Z,22.58
2018-06-05T19:00:41.070Z,22.65
2018-06-05T19:03:11.489Z,21.94
2018-06-05T19:05:49.873Z,21.96
2018-06-05T19:08:20.315Z,22.39
2018-06-05T19:10:50.792Z,22.66
2018-06-05T19:13:20.599Z,22.81
2018-06-05T19:15:50.554Z,23.09
2018-06-05T19:18:21.421Z,23.11
2018-06-05T19:20:53.384Z,23.27
2018-06-05T19:23:23.284Z,23.33
2018-06-05T19:25:54.371Z,23.39
2018-06-05T19:28:24.796Z,23.35
2018-06-05T19:30:55.288Z,23.32
2018-06-05T19:33:26.837Z,23.30
2018-06-05T19:35:56.607Z,23.32
2018-06-05T19:38:26.474Z,23.33
2018-06-05T19:40:57.180Z,23.31
2018-06-05T19:43:27.432Z,23.33
2018-06-05T19:45:57.319Z,23.27
2018-06-05T19:48:27.342Z,23.29
2018-06-05T19:50:58.106Z,23.06
2018-06-05T19:53:28.367Z,22.52
2018-06-05T19:55:58.284Z,21.97
2018-06-05T19:58:28.211Z,22.13
2018-06-05T20:00:58.998Z,22.48
2018-06-05T20:03:29.960Z,21.53
2018-06-05T20:05:59.795Z,21.67
2018-06-05T20:08:29.940Z,21.64
2018-06-05T20:11:00.429Z,21.64
2018-06-05T20:13:30.619Z,21.97
2018-06-05T20:16:03.504Z,22.32
2018-06-05T20:18:33.120Z,22.35
2018-06-05T20:21:04.240Z,22.52
2018-06-05T20:23:33.905Z,22.46
2018-06-05T20:26:03.629Z,22.47
2018-06-05T20:28:33.532Z,22.59
2018-06-05T20:31:04.653Z,22.17
2018-06-05T20:33:34.345Z,22.38
2018-06-05T20:36:04.174Z,22.33
2018-06-05T20:38:33.935Z,22.30
2018-06-05T20:41:04.725Z,22.45
2018-06-05T20:43:34.621Z,22.49
2018-06-05T20:46:04.344Z,22.29
2018-06-05T20:48:34.021Z,22.29
2018-06-05T20:51:03.860Z,21.90
2018-06-05T20:53:33.594Z,22.13
2018-06-05T20:56:03.245Z,22.17
2018-06-05T21:01:18.665Z,22.20
2018-06-05T21:03:48.324Z,22.29
2018-06-05T21:06:18.170Z,22.46
2018-06-05T21:08:47.889Z,22.47
2018-06-05T21:11:17.601Z,22.13
2018-06-05T21:13:47.375Z,22.07
2018-06-05T21:16:17.151Z,22.26
2018-06-05T21:18:47.124Z,22.00
2018-06-05T21:21:16.934Z,21.95
2018-06-05T21:23:46.648Z,22.15
2018-06-05T21:26:17.022Z,22.33
2018-06-05T21:28:46.777Z,22.24
2018-06-05T21:31:16.483Z,21.88
2018-06-05T21:33:46.106Z,21.26
2018-06-05T21:36:15.937Z,21.62
2018-06-05T21:38:45.587Z,21.29
2018-06-05T21:41:15.301Z,20.81
2018-06-05T21:43:45.039Z,20.77
2018-06-05T21:46:14.713Z,20.66
2018-06-05T21:48:44.462Z,20.21
2018-06-05T21:51:14.141Z,20.48
2018-06-05T21:53:43.861Z,20.49
2018-06-05T21:56:13.647Z,20.34
2018-06-05T21:58:43.432Z,20.89
2018-06-05T22:01:13.161Z,20.97
2018-06-05T22:03:42.719Z,20.78
2018-06-05T22:06:12.530Z,21.04
2018-06-05T22:08:42.169Z,21.21
2018-06-05T22:11:11.821Z,21.45
2018-06-05T22:13:41.590Z,21.64
2018-06-05T22:16:11.301Z,21.34
2018-06-05T22:18:41.104Z,21.32
2018-06-05T22:21:10.904Z,21.35
2018-06-05T22:23:40.687Z,21.60
2018-06-05T22:26:10.416Z,21.64
2018-06-05T22:28:40.770Z,21.31
2018-06-05T22:31:10.610Z,21.07
2018-06-05T22:33:40.320Z,21.30
2018-06-05T22:36:10.170Z,21.49
2018-06-05T22:38:40.029Z,20.92
2018-06-05T22:41:09.751Z,21.11
2018-06-05T22:43:39.437Z,20.96
2018-06-05T22:46:09.051Z,20.39
2018-06-05T22:48:38.867Z,20.88
2018-06-05T22:51:08.546Z,20.96
2018-06-05T22:53:38.326Z,21.18
2018-06-05T22:56:08.035Z,21.23
2018-06-05T22:58:37.733Z,21.18
2018-06-05T23:01:07.473Z,21.40
2018-06-05T23:03:37.245Z,20.79
2018-06-05T23:06:07.097Z,20.79
2018-06-05T23:08:36.881Z,20.50
2018-06-05T23:11:06.630Z,20.44
2018-06-05T23:13:36.388Z,20.17
2018-06-05T23:16:06.262Z,20.21
2018-06-05T23:18:35.953Z,20.52
2018-06-05T23:21:05.734Z,20.86
2018-06-05T23:23:35.375Z,21.23
2018-06-05T23:26:05.107Z,21.30
2018-06-05T23:28:34.963Z,21.13
2018-06-05T23:31:04.920Z,21.13
2018-06-05T23:33:34.588Z,21.13
2018-06-05T23:36:04.176Z,20.15
2018-06-05T23:38:33.958Z,20.33
2018-06-05T23:41:03.677Z,20.61
2018-06-05T23:43:33.398Z,21.10
2018-06-05T23:46:03.115Z,20.52
2018-06-05T23:48:32.962Z,20.72
2018-06-05T23:51:02.751Z,20.86
2018-06-05T23:53:32.376Z,20.95
2018-06-05T23:56:02.132Z,20.81
2018-06-05T23:58:31.921Z,21.10
